Time;durP1;ratioP1;P1;durP2;ratioP2;P2;SDS_P1;SDS_P2;PMS_P1;PMS_P2;Temp;Humidity;BMP_temperature;BMP_pressure;BME280_temperature;BME280_humidity;BME280_pressure;Samples;Min_cycle;Max_cycle;Signal;HPM_P1;HPM_P2
2021/10/19 00:01:20;;;;;;;2.90;0.90;;;17.00;55.60;;;;;;5013205;28;20811;-75
2021/10/19 00:03:48;;;;;;;1.05;0.47;;;17.00;55.90;;;;;;5015392;28;20022;-77
2021/10/19 00:06:14;;;;;;;17.40;11.68;;;17.00;56.10;;;;;;5013777;28;20026;-77
2021/10/19 00:08:41;;;;;;;5.80;1.52;;;17.00;56.50;;;;;;5013421;28;20476;-78
2021/10/19 00:11:09;;;;;;;2.40;0.80;;;17.00;56.70;;;;;;5010932;28;20036;-77
2021/10/19 00:13:36;;;;;;;2.58;1.60;;;17.10;57.00;;;;;;5016299;28;20044;-76
2021/10/19 00:16:08;;;;;;;4.72;0.60;;;17.00;57.20;;;;;;5014833;28;20500;-77
2021/10/19 00:18:36;;;;;;;3.33;1.00;;;17.00;57.50;;;;;;5014660;28;20157;-76
2021/10/19 00:21:03;;;;;;;4.68;1.17;;;17.00;57.90;;;;;;5011873;28;20319;-78
2021/10/19 00:23:30;;;;;;;3.83;1.95;;;17.00;58.10;;;;;;4999355;28;20049;-82
2021/10/19 00:25:56;;;;;;;4.43;1.20;;;16.90;58.20;;;;;;5016634;28;20065;-76
2021/10/19 00:28:23;;;;;;;9.80;2.63;;;17.00;58.30;;;;;;5014826;28;20156;-77
2021/10/19 00:30:49;;;;;;;7.65;1.50;;;17.00;58.10;;;;;;4995352;28;20060;-77
2021/10/19 00:33:16;;;;;;;6.25;0.90;;;16.90;57.30;;;;;;5014366;28;21556;-76
2021/10/19 00:35:42;;;;;;;1.80;0.60;;;16.90;56.80;;;;;;5015308;28;21615;-76
2021/10/19 00:38:09;;;;;;;3.50;1.10;;;16.80;56.20;;;;;;4994854;28;20393;-75
2021/10/19 00:40:35;;;;;;;2.53;0.73;;;16.80;56.10;;;;;;5016595;28;20091;-77
2021/10/19 00:43:04;;;;;;;2.38;0.88;;;16.80;55.00;;;;;;5011906;28;20436;-77
2021/10/19 00:45:30;;;;;;;3.72;0.60;;;16.80;55.10;;;;;;4994359;28;20018;-79
2021/10/19 00:47:57;;;;;;;4.50;0.68;;;16.70;54.90;;;;;;5016059;28;20523;-76
2021/10/19 00:50:24;;;;;;;5.85;0.70;;;16.80;55.40;;;;;;5014417;28;20554;-75
2021/10/19 00:52:52;;;;;;;3.10;0.60;;;16.80;55.40;;;;;;5011917;28;20481;-79
2021/10/19 00:55:18;;;;;;;2.88;0.70;;;16.80;55.90;;;;;;5012293;28;20091;-78
2021/10/19 00:57:46;;;;;;;1.98;0.80;;;16.80;56.40;;;;;;5015336;28;20034;-77
2021/10/19 01:00:13;;;;;;;3.50;1.13;;;16.80;57.40;;;;;;5015187;28;20025;-78
2021/10/19 01:02:43;;;;;;;2.42;1.00;;;16.80;58.40;;;;;;5007544;28;20021;-76
2021/10/19 01:05:11;;;;;;;2.83;0.98;;;16.80;58.70;;;;;;5012277;28;20033;-80
2021/10/19 01:07:38;;;;;;;6.82;0.93;;;16.80;58.70;;;;;;4996949;28;20064;-77
2021/10/19 01:10:06;;;;;;;3.47;0.70;;;16.80;58.30;;;;;;5016656;28;20040;-79
2021/10/19 01:12:35;;;;;;;1.75;0.63;;;16.80;58.10;;;;;;5008403;28;20025;-80
2021/10/19 01:15:08;;;;;;;3.58;1.10;;;16.80;58.20;;;;;;5015556;28;20018;-79
2021/10/19 01:17:44;;;;;;;3.60;0.70;;;16.70;58.40;;;;;;5011477;28;20040;-78
2021/10/19 01:20:22;;;;;;;3.17;1.27;;;16.70;58.00;;;;;;5010566;28;20452;-79
2021/10/19 01:22:48;;;;;;;2.97;0.95;;;16.70;58.10;;;;;;5011618;28;20026;-78
2021/10/19 01:25:20;;;;;;;5.47;0.85;;;16.70;58.10;;;;;;5013494;28;20053;-80
2021/10/19 01:27:49;;;;;;;2.83;0.63;;;16.60;58.10;;;;;;5014171;28;20033;-81
2021/10/19 01:30:16;;;;;;;5.13;1.95;;;16.60;58.10;;;;;;5011974;28;20393;-79
2021/10/19 01:32:43;;;;;;;5.88;1.20;;;16.60;58.20;;;;;;5007465;28;20556;-79
2021/10/19 01:35:11;;;;;;;3.80;0.70;;;16.70;58.50;;;;;;5014853;28;20121;-77
2021/10/19 01:37:38;;;;;;;2.92;0.63;;;16.60;58.30;;;;;;5013746;28;20558;-77
2021/10/19 01:40:09;;;;;;;2.40;1.10;;;16.70;58.20;;;;;;5018242;28;20472;-78
2021/10/19 01:42:36;;;;;;;4.10;0.88;;;16.70;58.20;;;;;;4994417;28;20782;-79
2021/10/19 01:45:04;;;;;;;2.15;0.60;;;16.70;58.50;;;;;;5020817;28;20361;-77
2021/10/19 01:47:30;;;;;;;6.10;1.05;;;16.60;58.60;;;;;;5015638;28;20045;-78
2021/10/19 01:49:57;;;;;;;1.25;0.50;;;16.70;58.90;;;;;;5020015;28;20017;-78
2021/10/19 01:52:23;;;;;;;4.43;0.90;;;16.70;59.20;;;;;;5012078;28;20511;-79
2021/10/19 01:54:50;;;;;;;4.93;1.05;;;16.60;59.20;;;;;;5016553;28;20022;-79
2021/10/19 01:57:16;;;;;;;2.28;0.93;;;16.70;59.30;;;;;;5020361;28;20132;-81
2021/10/19 01:59:42;;;;;;;3.30;0.90;;;16.60;59.40;;;;;;5019416;28;20019;-79
2021/10/19 02:02:09;;;;;;;2.97;0.63;;;16.50;59.50;;;;;;5012887;28;20172;-79
2021/10/19 02:04:35;;;;;;;2.40;0.80;;;16.50;59.40;;;;;;5018315;28;20505;-82
2021/10/19 02:07:02;;;;;;;2.15;0.73;;;16.50;59.60;;;;;;5020715;28;20034;-77
2021/10/19 02:09:28;;;;;;;3.47;0.55;;;16.50;59.50;;;;;;5015815;28;20120;-82
2021/10/19 02:11:55;;;;;;;2.45;0.57;;;16.50;59.90;;;;;;5012653;28;20026;-80
2021/10/19 02:14:22;;;;;;;1.08;0.70;;;16.50;59.20;;;;;;5000695;28;20070;-78
2021/10/19 02:16:49;;;;;;;2.42;0.82;;;16.40;59.10;;;;;;5018119;28;20196;-79
2021/10/19 02:19:15;;;;;;;2.42;0.90;;;16.50;59.10;;;;;;5018060;28;20033;-78
2021/10/19 02:21:41;;;;;;;3.90;0.77;;;16.50;59.00;;;;;;5012491;28;20057;-80
2021/10/19 02:24:09;;;;;;;1.55;0.73;;;16.50;58.80;;;;;;5015869;28;20777;-78
2021/10/19 02:26:36;;;;;;;1.83;0.50;;;16.50;58.60;;;;;;5016575;28;20045;-78
2021/10/19 02:29:23;;;;;;;9.00;1.02;;;16.40;58.80;;;;;;5017822;28;20156;-79
2021/10/19 02:31:49;;;;;;;4.32;0.77;;;16.40;58.90;;;;;;4997843;28;20552;-80
2021/10/19 02:34:17;;;;;;;5.47;0.95;;;16.40;59.10;;;;;;5018459;28;20041;-77
2021/10/19 02:36:44;;;;;;;3.50;0.90;;;16.40;59.40;;;;;;5015829;28;20022;-82
2021/10/19 02:39:11;;;;;;;5.13;0.85;;;16.40;59.70;;;;;;5000181;28;20028;-78
2021/10/19 02:41:39;;;;;;;3.53;0.80;;;16.40;59.90;;;;;;5013430;28;20029;-79
2021/10/19 02:44:06;;;;;;;4.65;1.20;;;16.40;60.20;;;;;;5015142;28;20026;-78
2021/10/19 02:46:33;;;;;;;6.72;0.98;;;16.40;60.10;;;;;;4998548;28;20026;-78
2021/10/19 02:49:01;;;;;;;1.48;0.73;;;16.40;60.10;;;;;;5019260;28;20561;-80
2021/10/19 02:51:28;;;;;;;4.00;1.35;;;16.40;60.40;;;;;;5010662;28;20038;-79
2021/10/19 02:53:56;;;;;;;5.88;1.35;;;16.40;60.50;;;;;;5018324;28;20580;-78
2021/10/19 02:56:23;;;;;;;4.82;1.00;;;16.40;60.80;;;;;;5014517;28;20098;-78
2021/10/19 02:58:50;;;;;;;4.45;1.52;;;16.30;60.80;;;;;;5018958;28;20014;-82
2021/10/19 03:01:16;;;;;;;6.88;2.00;;;16.30;61.10;;;;;;5011494;28;21387;-81
2021/10/19 03:03:43;;;;;;;3.42;0.90;;;16.30;61.10;;;;;;5016863;28;20547;-80
2021/10/19 03:06:09;;;;;;;5.00;1.08;;;16.20;61.20;;;;;;5000757;28;20546;-78
2021/10/19 03:08:36;;;;;;;3.50;1.02;;;16.20;61.20;;;;;;5001059;28;20052;-79
2021/10/19 03:11:03;;;;;;;4.70;1.40;;;16.10;61.40;;;;;;5014253;28;20095;-78
2021/10/19 03:13:29;;;;;;;5.70;1.02;;;16.10;61.10;;;;;;5014504;28;20013;-77
2021/10/19 03:15:57;;;;;;;4.57;1.38;;;16.10;61.20;;;;;;5017255;28;20147;-78
2021/10/19 03:18:23;;;;;;;4.28;1.30;;;16.00;61.20;;;;;;5015643;28;20024;-81
2021/10/19 03:20:50;;;;;;;6.20;1.00;;;16.00;60.70;;;;;;5018325;28;20054;-80
2021/10/19 03:23:17;;;;;;;3.03;0.95;;;16.10;60.60;;;;;;4997406;28;20365;-77
2021/10/19 03:25:44;;;;;;;6.38;0.88;;;16.10;60.30;;;;;;5016432;28;20005;-78
2021/10/19 03:28:11;;;;;;;5.68;0.90;;;16.10;60.70;;;;;;5018666;28;20061;-80
2021/10/19 03:30:37;;;;;;;2.15;1.20;;;16.10;61.00;;;;;;5016252;28;20044;-78
2021/10/19 03:33:04;;;;;;;1.90;0.60;;;16.20;61.40;;;;;;5010760;28;20132;-77
2021/10/19 03:35:30;;;;;;;3.17;1.00;;;16.20;61.40;;;;;;4997482;28;20093;-80
2021/10/19 03:37:57;;;;;;;5.25;0.80;;;16.20;61.60;;;;;;5015588;28;20006;-78
2021/10/19 03:40:23;;;;;;;9.80;1.25;;;16.20;61.80;;;;;;5017536;28;20393;-80
2021/10/19 03:42:50;;;;;;;5.47;1.15;;;16.20;62.00;;;;;;5011658;28;20018;-78
2021/10/19 03:45:18;;;;;;;3.33;1.05;;;16.20;62.20;;;;;;5016795;28;20037;-77
2021/10/19 03:47:45;;;;;;;4.57;1.00;;;16.20;61.90;;;;;;5015860;28;21453;-78
2021/10/19 03:50:13;;;;;;;3.13;1.05;;;16.30;62.20;;;;;;5016950;28;20053;-79
2021/10/19 03:52:39;;;;;;;1.55;0.68;;;16.20;61.60;;;;;;5009732;28;20029;-79
2021/10/19 03:55:08;;;;;;;3.45;0.88;;;16.20;61.10;;;;;;5016416;28;20021;-75
2021/10/19 03:57:35;;;;;;;3.55;1.30;;;16.20;60.40;;;;;;5014907;28;20045;-75
2021/10/19 04:00:03;;;;;;;4.85;1.58;;;16.10;60.30;;;;;;5017220;28;20013;-78
2021/10/19 04:02:30;;;;;;;3.47;1.02;;;16.10;60.60;;;;;;5013976;28;20488;-79
2021/10/19 04:04:56;;;;;;;4.18;1.17;;;16.00;60.50;;;;;;5013696;28;20045;-78
2021/10/19 04:07:23;;;;;;;4.40;1.02;;;15.90;60.60;;;;;;5015629;28;20084;-79
2021/10/19 04:09:49;;;;;;;4.15;0.90;;;15.90;60.70;;;;;;5017071;28;20503;-76
2021/10/19 04:12:16;;;;;;;2.20;1.23;;;15.90;60.90;;;;;;5013738;28;20512;-77
2021/10/19 04:14:45;;;;;;;2.15;0.93;;;15.90;61.00;;;;;;5016925;28;20064;-79
2021/10/19 04:17:11;;;;;;;18.33;13.63;;;15.90;61.20;;;;;;5017606;28;21524;-76
2021/10/19 04:19:38;;;;;;;32.15;23.42;;;15.80;61.10;;;;;;5015674;28;20393;-77
2021/10/19 04:22:04;;;;;;;11.02;8.00;;;15.90;61.30;;;;;;5011734;28;20021;-77
2021/10/19 04:24:31;;;;;;;8.27;4.07;;;15.90;61.30;;;;;;5015441;28;20048;-78
2021/10/19 04:27:03;;;;;;;3.35;1.20;;;15.80;61.60;;;;;;5011742;28;20032;-78
2021/10/19 04:29:29;;;;;;;3.83;1.20;;;15.90;61.50;;;;;;5014231;28;20029;-75
2021/10/19 04:31:56;;;;;;;4.93;1.23;;;15.90;61.60;;;;;;5009490;28;20072;-77
2021/10/19 04:34:28;;;;;;;4.13;1.10;;;15.90;61.50;;;;;;5017374;28;20493;-78
2021/10/19 04:37:02;;;;;;;2.50;1.77;;;16.00;61.70;;;;;;4998169;28;20037;-79
2021/10/19 04:39:28;;;;;;;6.05;0.93;;;16.00;61.70;;;;;;4996161;28;20087;-79
2021/10/19 04:41:56;;;;;;;4.32;1.42;;;16.00;61.70;;;;;;5010041;28;20021;-78
2021/10/19 04:44:22;;;;;;;11.15;1.45;;;16.00;62.00;;;;;;4995007;28;20057;-78
2021/10/19 04:46:49;;;;;;;5.47;1.38;;;16.00;62.00;;;;;;5019067;28;20048;-78
2021/10/19 04:49:16;;;;;;;5.15;1.33;;;16.00;62.00;;;;;;5016177;28;20033;-78
2021/10/19 04:51:42;;;;;;;3.70;0.90;;;16.10;62.10;;;;;;5007191;28;20034;-78
2021/10/19 04:54:09;;;;;;;6.05;1.67;;;16.20;62.20;;;;;;5014031;28;20112;-78
2021/10/19 04:57:02;;;;;;;6.40;1.48;;;16.20;61.80;;;;;;5016946;28;20381;-80
2021/10/19 05:00:08;;;;;;;4.32;1.38;;;16.20;61.30;;;;;;5021782;28;20045;-79
2021/10/19 05:03:15;;;;;;;4.05;1.58;;;16.20;61.00;;;;;;5024703;28;20029;-78
2021/10/19 05:06:33;;;;;;;7.10;1.67;;;16.20;60.80;;;;;;5024385;28;20022;-80
2021/10/19 05:09:39;;;;;;;5.03;1.35;;;16.20;60.70;;;;;;5010210;28;20388;-79
2021/10/19 05:13:04;;;;;;;5.13;1.35;;;16.10;60.90;;;;;;5020637;28;20041;-79
2021/10/19 05:16:22;;;;;;;4.35;1.23;;;16.10;60.90;;;;;;5026049;28;20017;-79
2021/10/19 05:19:37;;;;;;;2.97;1.25;;;16.20;61.20;;;;;;5027031;28;20021;-79
2021/10/19 05:22:46;;;;;;;4.32;1.75;;;16.20;61.60;;;;;;5026204;28;20013;-80
2021/10/19 05:25:52;;;;;;;6.57;1.80;;;16.20;61.70;;;;;;5024928;28;20029;-79
2021/10/19 05:29:01;;;;;;;8.05;1.30;;;16.30;61.60;;;;;;5023216;28;20057;-80
2021/10/19 05:32:10;;;;;;;5.20;1.35;;;16.30;61.60;;;;;;5022787;28;20049;-78
2021/10/19 05:35:29;;;;;;;3.33;1.00;;;16.40;61.80;;;;;;5019842;28;20454;-79
2021/10/19 05:38:51;;;;;;;;;;;;;;;;;;;;;
2021/10/19 05:42:07;;;;;;;4.10;0.85;;;16.50;61.20;;;;;;5012154;28;20064;-80
2021/10/19 05:45:13;;;;;;;2.50;1.13;;;16.60;60.90;;;;;;5025290;28;20025;-79
2021/10/19 05:48:29;;;;;;;2.03;0.80;;;16.60;60.60;;;;;;5017310;28;20036;-80
2021/10/19 05:51:46;;;;;;;3.97;0.70;;;16.70;60.60;;;;;;5024842;28;20036;-78
2021/10/19 05:54:55;;;;;;;6.60;1.20;;;16.80;60.60;;;;;;4997127;28;20029;-77
2021/10/19 05:58:05;;;;;;;7.05;1.40;;;16.80;60.50;;;;;;5005346;28;20021;-81
2021/10/19 06:04:37;;;;;;;2.28;1.70;;;17.00;60.00;;;;;;5024390;28;20041;-80
2021/10/19 06:07:43;;;;;;;2.10;0.95;;;17.00;60.00;;;;;;5018929;28;20045;-80
2021/10/19 06:10:49;;;;;;;8.18;2.00;;;17.10;59.50;;;;;;5021052;28;20021;-80
2021/10/19 06:13:56;;;;;;;10.52;1.60;;;17.20;59.50;;;;;;5019692;28;20018;-80
2021/10/19 06:17:02;;;;;;;5.72;1.30;;;17.20;59.10;;;;;;5023883;28;20593;-79
2021/10/19 06:20:08;;;;;;;4.78;1.88;;;17.30;59.40;;;;;;5023898;28;20025;-80
2021/10/19 06:23:14;;;;;;;3.25;1.25;;;17.30;59.40;;;;;;5007270;28;20021;-82
2021/10/19 06:26:20;;;;;;;4.88;0.90;;;17.40;59.00;;;;;;5026014;28;20820;-79
2021/10/19 06:29:29;;;;;;;3.30;0.80;;;17.50;58.70;;;;;;5005328;28;20048;-81
2021/10/19 06:32:37;;;;;;;6.38;1.35;;;17.60;58.70;;;;;;5005150;28;20045;-80
2021/10/19 06:35:43;;;;;;;6.93;1.75;;;17.70;58.20;;;;;;5024405;28;20029;-81
2021/10/19 06:38:10;;;;;;;3.58;1.25;;;17.80;57.90;;;;;;5023337;28;20543;-79
2021/10/19 06:41:00;;;;;;;2.58;0.88;;;17.90;57.20;;;;;;5024930;28;20404;-81
2021/10/19 06:43:26;;;;;;;6.53;1.27;;;17.90;56.90;;;;;;4997424;28;20030;-81
2021/10/19 06:46:03;;;;;;;7.85;1.48;;;18.00;57.10;;;;;;5027894;28;20391;-81
2021/10/19 06:48:30;;;;;;;5.95;1.02;;;18.10;57.10;;;;;;5002895;28;20038;-80
2021/10/19 06:51:06;;;;;;;3.88;0.75;;;18.20;57.10;;;;;;5008829;28;20014;-81
2021/10/19 06:53:33;;;;;;;6.43;1.33;;;18.30;55.50;;;;;;5029198;28;20026;-80
2021/10/19 06:56:00;;;;;;;5.18;1.42;;;18.40;55.40;;;;;;5025399;28;20373;-80
2021/10/19 06:58:27;;;;;;;2.35;1.05;;;18.40;55.30;;;;;;5026381;28;20595;-80
2021/10/19 07:01:05;;;;;;;4.90;1.17;;;18.50;55.20;;;;;;5008680;28;20025;-80
2021/10/19 07:03:42;;;;;;;4.18;0.90;;;18.60;55.40;;;;;;5010276;28;20048;-81
2021/10/19 07:06:34;;;;;;;2.55;1.10;;;18.70;55.40;;;;;;5020100;28;20594;-82
2021/10/19 07:09:02;;;;;;;3.15;0.75;;;18.80;55.30;;;;;;5006065;28;20026;-79
2021/10/19 07:11:30;;;;;;;3.42;0.95;;;18.80;55.20;;;;;;5008420;28;20554;-80
2021/10/19 07:13:56;;;;;;;3.88;1.35;;;18.90;54.30;;;;;;5021309;28;20029;-79
2021/10/19 07:16:23;;;;;;;8.80;2.95;;;19.00;53.90;;;;;;5024200;28;20014;-81
2021/10/19 07:19:25;;;;;;;12.27;1.73;;;19.10;54.60;;;;;;5021389;28;20469;-81
2021/10/19 07:21:51;;;;;;;5.40;1.40;;;19.20;54.40;;;;;;5024776;28;20022;-80
2021/10/19 07:24:18;;;;;;;4.70;1.50;;;19.20;53.20;;;;;;5027147;28;20393;-79
2021/10/19 07:27:27;;;;;;;4.80;1.25;;;19.30;53.00;;;;;;5020816;28;20025;-81
2021/10/19 07:29:54;;;;;;;3.63;1.70;;;19.40;52.70;;;;;;5026363;28;20385;-81
2021/10/19 07:32:21;;;;;;;5.38;2.13;;;19.40;52.60;;;;;;5024123;28;20030;-80
2021/10/19 07:34:47;;;;;;;3.97;1.83;;;19.50;51.60;;;;;;5026098;28;20054;-80
2021/10/19 07:37:15;;;;;;;3.50;0.93;;;19.50;51.80;;;;;;5019017;28;20487;-81
2021/10/19 07:39:42;;;;;;;2.15;1.00;;;19.60;52.00;;;;;;5023143;28;20025;-81
2021/10/19 07:42:09;;;;;;;2.70;0.80;;;19.60;51.80;;;;;;5022764;28;20097;-80
2021/10/19 07:44:36;;;;;;;1.90;0.80;;;19.70;52.10;;;;;;5023598;28;20029;-79
2021/10/19 07:47:02;;;;;;;3.25;1.15;;;19.80;51.50;;;;;;5027706;28;20034;-80
2021/10/19 07:49:29;;;;;;;3.70;0.90;;;19.90;51.70;;;;;;5025025;28;20021;-81
2021/10/19 07:51:55;;;;;;;3.92;1.20;;;19.90;50.70;;;;;;5024908;28;20053;-80
2021/10/19 07:54:22;;;;;;;3.60;0.95;;;20.00;50.60;;;;;;5023744;28;20039;-81
2021/10/19 07:56:49;;;;;;;5.72;1.02;;;20.10;50.60;;;;;;5019725;28;20402;-80
2021/10/19 07:59:15;;;;;;;5.05;1.10;;;20.20;50.80;;;;;;5027073;28;20022;-80
2021/10/19 08:01:42;;;;;;;11.65;1.30;;;20.30;51.30;;;;;;5007256;28;20092;-81
2021/10/19 08:04:09;;;;;;;3.83;0.90;;;20.30;52.10;;;;;;5007791;28;20698;-81
2021/10/19 08:06:37;;;;;;;2.90;0.75;;;20.40;51.90;;;;;;5023609;28;20025;-81
2021/10/19 08:09:03;;;;;;;4.85;1.05;;;20.50;51.60;;;;;;5026021;28;20021;-81
2021/10/19 08:11:30;;;;;;;5.78;0.98;;;20.60;50.70;;;;;;5028219;28;20044;-81
2021/10/19 08:13:58;;;;;;;5.00;0.98;;;20.60;49.10;;;;;;5025934;28;20053;-80
2021/10/19 08:16:25;;;;;;;2.00;0.90;;;20.80;47.80;;;;;;5024235;28;20025;-79
2021/10/19 08:18:53;;;;;;;5.20;0.80;;;20.80;48.00;;;;;;5022198;28;20021;-80
2021/10/19 08:21:21;;;;;;;5.80;1.98;;;20.90;47.50;;;;;;5026798;28;20116;-81
2021/10/19 08:23:48;;;;;;;4.45;1.30;;;21.00;47.90;;;;;;5022505;28;20020;-80
2021/10/19 08:26:14;;;;;;;2.17;1.27;;;21.10;48.40;;;;;;5023773;28;20084;-80
2021/10/19 08:28:55;;;;;;;2.55;1.23;;;21.20;47.50;;;;;;5022822;28;20029;-80
2021/10/19 08:31:21;;;;;;;6.88;1.75;;;21.20;47.60;;;;;;5022873;28;20025;-81
2021/10/19 08:33:50;;;;;;;7.97;2.00;;;21.30;48.40;;;;;;5022690;28;20519;-79
2021/10/19 08:36:18;;;;;;;4.70;1.73;;;21.40;47.90;;;;;;5022264;28;20028;-80
2021/10/19 08:38:45;;;;;;;9.27;2.20;;;21.50;47.60;;;;;;5027728;28;20025;-82
2021/10/19 08:41:12;;;;;;;6.15;3.08;;;21.60;48.00;;;;;;5024738;28;20128;-80
2021/10/19 08:43:39;;;;;;;4.78;2.05;;;21.70;47.90;;;;;;5008214;28;20112;-80
2021/10/19 08:46:13;;;;;;;5.82;1.30;;;21.80;48.30;;;;;;5022544;28;20022;-81
2021/10/19 08:48:43;;;;;;;6.75;1.38;;;21.90;48.50;;;;;;5023751;28;20029;-80
2021/10/19 08:51:10;;;;;;;3.33;0.90;;;22.00;47.90;;;;;;5026366;28;20033;-81
2021/10/19 08:53:39;;;;;;;4.20;1.00;;;22.10;49.00;;;;;;5024429;28;20136;-78
2021/10/19 08:56:06;;;;;;;4.88;1.10;;;22.10;48.20;;;;;;5022178;28;20041;-78
2021/10/19 08:58:33;;;;;;;5.88;1.52;;;22.20;47.70;;;;;;5023376;28;20480;-80
2021/10/19 09:01:07;;;;;;;3.35;1.30;;;22.30;47.50;;;;;;5025186;28;20033;-79
2021/10/19 09:03:33;;;;;;;3.55;0.90;;;22.30;47.60;;;;;;5026405;28;20101;-80
2021/10/19 09:06:01;;;;;;;5.55;1.00;;;22.40;47.50;;;;;;5019959;28;20105;-80
2021/10/19 09:08:28;;;;;;;3.40;0.85;;;22.50;47.00;;;;;;5024568;28;20435;-80
2021/10/19 09:10:55;;;;;;;3.05;1.50;;;22.60;46.50;;;;;;5019146;28;20017;-79
2021/10/19 09:13:22;;;;;;;2.70;1.08;;;22.70;44.70;;;;;;5024727;28;20022;-80
2021/10/19 09:15:50;;;;;;;5.70;1.05;;;22.80;44.50;;;;;;5022210;28;20461;-80
2021/10/19 09:18:22;;;;;;;1.08;0.68;;;22.80;44.30;;;;;;5023225;28;20018;-80
2021/10/19 09:20:54;;;;;;;3.80;0.85;;;22.90;44.00;;;;;;5023267;28;20088;-80
2021/10/19 09:23:24;;;;;;;4.60;1.17;;;23.00;43.40;;;;;;5020174;28;20334;-81
2021/10/19 09:25:52;;;;;;;3.38;1.05;;;23.00;43.20;;;;;;5024052;28;20022;-80
2021/10/19 09:28:39;;;;;;;3.15;0.68;;;23.10;42.50;;;;;;5007789;28;20014;-80
2021/10/19 09:31:07;;;;;;;3.85;0.90;;;23.20;41.80;;;;;;5024589;28;20428;-79
2021/10/19 09:33:33;;;;;;;4.28;0.98;;;23.30;42.60;;;;;;5023673;28;20037;-79
2021/10/19 09:36:01;;;;;;;4.35;1.10;;;23.40;42.90;;;;;;5022459;28;20021;-79
2021/10/19 09:38:28;;;;;;;2.35;1.13;;;23.50;42.90;;;;;;5022028;28;20164;-79
2021/10/19 09:40:57;;;;;;;2.42;0.90;;;23.60;42.00;;;;;;5022982;28;20026;-79
2021/10/19 09:43:26;;;;;;;2.63;1.15;;;23.60;41.50;;;;;;5024498;28;20021;-80
2021/10/19 09:45:56;;;;;;;2.35;1.05;;;23.70;41.20;;;;;;5020599;28;20033;-80
2021/10/19 09:48:30;;;;;;;2.08;0.75;;;23.70;41.00;;;;;;5020411;28;20018;-82
2021/10/19 09:50:57;;;;;;;;;;;23.80;41.30;;;;;;5025495;28;20049;-81
2021/10/19 09:53:25;;;;;;;5.00;1.20;;;23.90;40.40;;;;;;5019762;28;19913;-79
2021/10/19 09:55:53;;;;;;;2.30;1.27;;;23.90;40.50;;;;;;5024561;28;20128;-78
2021/10/19 09:58:21;;;;;;;1.75;0.90;;;24.10;39.10;;;;;;5005853;28;20087;-79
2021/10/19 10:00:48;;;;;;;4.63;1.38;;;24.20;39.10;;;;;;5008956;28;20450;-79
2021/10/19 10:03:15;;;;;;;6.72;1.15;;;24.30;39.70;;;;;;5026345;28;20018;-79
2021/10/19 10:05:42;;;;;;;2.20;1.00;;;24.40;39.10;;;;;;5028125;28;20033;-81
2021/10/19 10:08:18;;;;;;;4.53;1.15;;;24.50;38.00;;;;;;5025091;28;20045;-79
2021/10/19 10:10:50;;;;;;;2.50;0.90;;;24.60;38.60;;;;;;5028017;28;20013;-78
2021/10/19 10:13:17;;;;;;;5.47;0.90;;;24.60;38.60;;;;;;5025667;28;20117;-78
2021/10/19 10:15:44;;;;;;;3.55;1.00;;;24.70;38.50;;;;;;5027224;28;20614;-79
2021/10/19 10:18:12;;;;;;;3.42;0.95;;;24.70;38.30;;;;;;5026044;28;20030;-79
2021/10/19 10:20:49;;;;;;;4.00;1.00;;;24.80;38.50;;;;;;5025629;28;20049;-79
2021/10/19 10:23:30;;;;;;;5.15;0.80;;;24.90;38.50;;;;;;5005805;28;20022;-79
2021/10/19 10:25:59;;;;;;;5.28;1.17;;;25.00;39.00;;;;;;5022234;28;20023;-79
2021/10/19 10:28:32;;;;;;;3.38;1.00;;;25.00;39.30;;;;;;5027478;28;20105;-81
2021/10/19 10:31:01;;;;;;;4.55;1.83;;;25.10;38.90;;;;;;5030359;28;20381;-82
2021/10/19 10:33:38;;;;;;;6.65;1.27;;;25.20;38.70;;;;;;5025346;28;20064;-79
2021/10/19 10:36:10;;;;;;;1.48;0.88;;;25.30;38.80;;;;;;5026395;28;20480;-78
2021/10/19 10:38:38;;;;;;;2.17;1.42;;;25.30;38.60;;;;;;5025823;28;20029;-80
2021/10/19 10:41:14;;;;;;;3.50;1.00;;;25.30;38.20;;;;;;5025514;28;20022;-79
2021/10/19 10:43:43;;;;;;;6.05;0.70;;;25.40;38.20;;;;;;5023465;28;20018;-79
2021/10/19 10:46:14;;;;;;;3.70;1.13;;;25.40;38.10;;;;;;5022939;28;20389;-79
2021/10/19 10:48:41;;;;;;;4.97;1.13;;;25.50;38.20;;;;;;5010455;28;20060;-81
2021/10/19 10:51:09;;;;;;;3.05;1.08;;;25.50;37.90;;;;;;5024172;28;20102;-79
2021/10/19 10:53:45;;;;;;;5.30;1.73;;;25.60;38.00;;;;;;5026062;28;20017;-79
2021/10/19 10:56:13;;;;;;;1.20;0.65;;;25.70;37.90;;;;;;5024427;28;20026;-79
2021/10/19 10:58:42;;;;;;;3.67;0.82;;;25.70;38.00;;;;;;5022123;28;20468;-79
2021/10/19 11:01:23;;;;;;;3.70;1.08;;;25.90;38.00;;;;;;5026484;28;20030;-79
2021/10/19 11:03:53;;;;;;;4.97;0.85;;;25.90;37.90;;;;;;5025204;28;20492;-78
2021/10/19 11:06:25;;;;;;;3.22;1.75;;;26.00;37.60;;;;;;5024787;28;20022;-79
2021/10/19 11:09:00;;;;;;;5.18;1.02;;;26.10;37.60;;;;;;5006095;28;20075;-79
2021/10/19 11:11:30;;;;;;;2.53;1.23;;;26.10;37.30;;;;;;5022013;28;20097;-79
2021/10/19 11:14:08;;;;;;;3.97;1.38;;;26.20;37.40;;;;;;5024403;28;20484;-79
2021/10/19 11:16:42;;;;;;;3.08;0.70;;;26.30;37.10;;;;;;5021938;28;20042;-80
2021/10/19 11:19:25;;;;;;;3.95;0.82;;;26.40;37.50;;;;;;5008729;28;20025;-79
2021/10/19 11:21:57;;;;;;;7.82;1.58;;;26.50;37.60;;;;;;5024203;28;20014;-80
2021/10/19 11:24:27;;;;;;;16.73;1.73;;;26.60;37.50;;;;;;5021643;28;20045;-79
2021/10/19 11:26:54;;;;;;;3.10;1.02;;;26.70;37.00;;;;;;5007185;28;20366;-79
2021/10/19 11:29:21;;;;;;;2.78;2.10;;;26.70;37.00;;;;;;5022945;28;20392;-79
2021/10/19 11:31:49;;;;;;;4.95;1.33;;;26.80;37.10;;;;;;5025791;28;20504;-80
2021/10/19 11:34:16;;;;;;;7.55;1.60;;;26.80;37.20;;;;;;5023973;28;20042;-81
2021/10/19 11:36:43;;;;;;;4.32;1.17;;;26.90;37.30;;;;;;5008257;28;20386;-79
2021/10/19 11:39:12;;;;;;;4.70;1.30;;;27.00;37.00;;;;;;5022031;28;20088;-79
2021/10/19 11:41:42;;;;;;;4.30;1.30;;;27.00;36.80;;;;;;5023225;28;20018;-78
2021/10/19 11:44:10;;;;;;;3.85;1.00;;;27.10;36.50;;;;;;5028175;28;21349;-78
2021/10/19 11:46:37;;;;;;;6.55;1.20;;;27.10;36.60;;;;;;5023824;28;20025;-78
2021/10/19 11:49:11;;;;;;;3.47;1.20;;;27.20;37.00;;;;;;5024533;28;20453;-79
2021/10/19 11:51:41;;;;;;;1.73;1.00;;;27.20;36.50;;;;;;5021890;28;20072;-79
2021/10/19 11:54:08;;;;;;;3.90;1.13;;;27.30;36.50;;;;;;5025550;28;20469;-80
2021/10/19 11:56:34;;;;;;;2.67;1.08;;;27.30;36.80;;;;;;5025364;28;20018;-79
2021/10/19 11:59:07;;;;;;;5.00;1.00;;;27.30;36.70;;;;;;5026943;28;20029;-79
2021/10/19 12:01:41;;;;;;;6.20;1.25;;;27.40;36.70;;;;;;5008187;28;20088;-79
2021/10/19 12:04:13;;;;;;;2.47;1.20;;;27.40;36.50;;;;;;5020732;28;20104;-79
2021/10/19 12:06:46;;;;;;;3.35;1.00;;;27.40;35.90;;;;;;5022323;28;20095;-79
2021/10/19 12:09:22;;;;;;;4.47;1.50;;;27.50;36.00;;;;;;5024742;28;20021;-79
2021/10/19 12:11:53;;;;;;;3.13;1.83;;;27.50;36.30;;;;;;5007522;28;20562;-79
2021/10/19 12:14:35;;;;;;;3.85;1.02;;;27.60;36.70;;;;;;5022491;28;20020;-78
2021/10/19 12:17:22;;;;;;;3.13;1.15;;;27.60;36.20;;;;;;5027159;28;20018;-79
2021/10/19 12:19:56;;;;;;;3.92;1.33;;;27.60;37.60;;;;;;5023859;28;20109;-79
2021/10/19 12:22:33;;;;;;;6.00;1.70;;;27.60;38.50;;;;;;5003425;28;20022;-79
2021/10/19 12:25:08;;;;;;;6.30;1.10;;;27.70;39.40;;;;;;5024622;28;20021;-78
2021/10/19 12:27:39;;;;;;;5.60;1.33;;;27.70;39.00;;;;;;5023130;28;20361;-79
2021/10/19 12:30:16;;;;;;;3.72;1.63;;;27.70;38.60;;;;;;5025392;28;20076;-78
2021/10/19 12:32:44;;;;;;;5.13;1.95;;;27.70;38.90;;;;;;5024930;28;20026;-79
2021/10/19 12:35:12;;;;;;;5.70;1.90;;;27.70;39.10;;;;;;5020951;28;20040;-79
2021/10/19 12:37:40;;;;;;;6.78;1.70;;;27.70;38.80;;;;;;5022244;28;20033;-79
2021/10/19 12:40:13;;;;;;;5.22;1.95;;;27.70;39.70;;;;;;5006036;28;20018;-79
2021/10/19 12:42:51;;;;;;;4.95;1.42;;;27.70;39.70;;;;;;5025627;28;20033;-79
2021/10/19 12:45:17;;;;;;;10.52;2.70;;;27.60;40.10;;;;;;5026180;28;20392;-79
2021/10/19 12:47:44;;;;;;;5.47;1.27;;;27.60;40.00;;;;;;5006800;28;20106;-79
2021/10/19 12:50:11;;;;;;;7.68;1.83;;;27.60;39.70;;;;;;5008044;28;20025;-79
2021/10/19 12:52:37;;;;;;;4.18;1.40;;;27.50;40.20;;;;;;5026090;28;20022;-79
2021/10/19 12:55:04;;;;;;;7.03;1.95;;;27.50;39.90;;;;;;5023623;28;20392;-78
2021/10/19 12:57:30;;;;;;;4.60;1.13;;;27.40;39.60;;;;;;5021160;28;20044;-78
2021/10/19 12:59:57;;;;;;;6.05;1.52;;;27.40;39.40;;;;;;5023924;28;20018;-78
2021/10/19 13:02:26;;;;;;;5.70;1.80;;;27.40;39.60;;;;;;5026466;28;20536;-79
2021/10/19 13:04:54;;;;;;;3.95;1.90;;;27.40;40.40;;;;;;5020220;28;20045;-78
2021/10/19 13:07:20;;;;;;;4.22;2.10;;;27.40;39.90;;;;;;5023327;28;20101;-79
2021/10/19 13:09:47;;;;;;;5.75;1.80;;;27.30;41.00;;;;;;5022042;28;20395;-78
2021/10/19 13:12:30;;;;;;;7.53;1.95;;;27.30;41.90;;;;;;5027250;28;20053;-79
2021/10/19 13:14:56;;;;;;;5.78;1.60;;;27.20;41.20;;;;;;5023401;28;20104;-79
2021/10/19 13:17:23;;;;;;;9.15;1.45;;;27.20;40.60;;;;;;5023037;28;21769;-79
2021/10/19 13:19:49;;;;;;;9.25;1.77;;;27.20;40.40;;;;;;5023734;28;20022;-78
2021/10/19 13:22:17;;;;;;;8.27;2.00;;;27.20;40.60;;;;;;5024859;28;20739;-79